sensor_id;sensor_type;location;lat;lon;timestamp;temperature;humidity
49821;DHT22;36893;52.520;13.450;2023-04-01T00:09:29;21.70;72.10
49821;DHT22;36893;52.520;13.450;2023-04-01T00:19:30;21.70;72.10
49821;DHT22;36893;52.520;13.450;2023-04-01T00:29:33;21.70;72.10
49821;DHT22;36893;52.520;13.450;2023-04-01T00:39:35;21.70;72.10
49821;DHT22;36893;52.520;13.450;2023-04-01T00:49:39;21.70;72.00
49821;DHT22;36893;52.520;13.450;2023-04-01T00:59:43;21.70;72.00
49821;DHT22;36893;52.520;13.450;2023-04-01T01:10:04;21.70;72.00
49821;DHT22;36893;52.520;13.450;2023-04-01T01:20:33;21.60;71.90
49821;DHT22;36893;52.520;13.450;2023-04-01T01:30:57;21.60;71.90
49821;DHT22;36893;52.520;13.450;2023-04-01T01:41:05;21.60;71.90
49821;DHT22;36893;52.520;13.450;2023-04-01T01:51:07;21.60;71.80
49821;DHT22;36893;52.520;13.450;2023-04-01T02:01:29;21.60;71.80
49821;DHT22;36893;52.520;13.450;2023-04-01T02:11:35;21.60;71.80
49821;DHT22;36893;52.520;13.450;2023-04-01T02:22:06;21.60;72.60
49821;DHT22;36893;52.520;13.450;2023-04-01T02:32:10;21.60;71.70
49821;DHT22;36893;52.520;13.450;2023-04-01T02:42:10;21.60;71.70
49821;DHT22;36893;52.520;13.450;2023-04-01T02:52:11;21.60;71.70
49821;DHT22;36893;52.520;13.450;2023-04-01T03:02:12;21.60;71.70
49821;DHT22;36893;52.520;13.450;2023-04-01T03:12:12;21.50;71.60
49821;DHT22;36893;52.520;13.450;2023-04-01T03:22:13;21.60;71.70
49821;DHT22;36893;52.520;13.450;2023-04-01T03:32:14;21.60;71.70
49821;DHT22;36893;52.520;13.450;2023-04-01T03:42:15;21.50;71.60
49821;DHT22;36893;52.520;13.450;2023-04-01T03:52:15;21.60;71.60
49821;DHT22;36893;52.520;13.450;2023-04-01T04:02:16;21.60;71.60
49821;DHT22;36893;52.520;13.450;2023-04-01T04:12:17;21.50;71.50
49821;DHT22;36893;52.520;13.450;2023-04-01T04:22:18;21.50;72.30
49821;DHT22;36893;52.520;13.450;2023-04-01T04:32:18;21.50;71.50
49821;DHT22;36893;52.520;13.450;2023-04-01T04:42:19;21.50;71.50
49821;DHT22;36893;52.520;13.450;2023-04-01T04:52:20;21.50;71.50
49821;DHT22;36893;52.520;13.450;2023-04-01T05:02:20;21.50;71.50
49821;DHT22;36893;52.520;13.450;2023-04-01T05:12:21;21.50;71.60
49821;DHT22;36893;52.520;13.450;2023-04-01T05:22:22;21.50;71.60
49821;DHT22;36893;52.520;13.450;2023-04-01T05:32:24;21.50;71.50
49821;DHT22;36893;52.520;13.450;2023-04-01T05:42:24;21.50;71.50
49821;DHT22;36893;52.520;13.450;2023-04-01T05:52:25;21.50;71.50
49821;DHT22;36893;52.520;13.450;2023-04-01T06:02:26;21.50;71.50
49821;DHT22;36893;52.520;13.450;2023-04-01T06:13:01;21.50;71.60
49821;DHT22;36893;52.520;13.450;2023-04-01T06:23:37;21.60;71.90
49821;DHT22;36893;52.520;13.450;2023-04-01T06:34:27;21.60;72.10
49821;DHT22;36893;52.520;13.450;2023-04-01T06:45:28;21.60;72.40
49821;DHT22;36893;52.520;13.450;2023-04-01T06:55:50;21.60;72.60
49821;DHT22;36893;52.520;13.450;2023-04-01T07:05:53;21.60;72.80
49821;DHT22;36893;52.520;13.450;2023-04-01T07:16:11;21.60;73.00
49821;DHT22;36893;52.520;13.450;2023-04-01T07:26:19;21.60;73.00
49821;DHT22;36893;52.520;13.450;2023-04-01T07:36:36;21.60;73.10
49821;DHT22;36893;52.520;13.450;2023-04-01T07:46:50;21.60;73.20
49821;DHT22;36893;52.520;13.450;2023-04-01T07:57:19;21.60;73.20
49821;DHT22;36893;52.520;13.450;2023-04-01T08:07:45;21.60;73.30
49821;DHT22;36893;52.520;13.450;2023-04-01T09:09:58;21.60;73.10
49821;DHT22;36893;52.520;13.450;2023-04-01T09:41:30;21.60;72.90
49821;DHT22;36893;52.520;13.450;2023-04-01T09:52:10;21.60;72.90
49821;DHT22;36893;52.520;13.450;2023-04-01T10:56:46;21.60;72.80
49821;DHT22;36893;52.520;13.450;2023-04-01T11:06:57;21.60;72.70
49821;DHT22;36893;52.520;13.450;2023-04-01T11:28:35;21.60;72.80
49821;DHT22;36893;52.520;13.450;2023-04-01T11:39:22;21.60;72.70
49821;DHT22;36893;52.520;13.450;2023-04-01T12:10:46;21.60;72.60
49821;DHT22;36893;52.520;13.450;2023-04-01T12:21:09;21.60;72.60
49821;DHT22;36893;52.520;13.450;2023-04-01T12:42:01;21.60;72.60
49821;DHT22;36893;52.520;13.450;2023-04-01T12:52:12;21.60;72.60
49821;DHT22;36893;52.520;13.450;2023-04-01T13:02:27;21.50;72.50
49821;DHT22;36893;52.520;13.450;2023-04-01T13:12:57;21.50;72.50
49821;DHT22;36893;52.520;13.450;2023-04-01T13:33:31;21.50;72.50
49821;DHT22;36893;52.520;13.450;2023-04-01T13:43:52;21.50;72.50
49821;DHT22;36893;52.520;13.450;2023-04-01T14:15:59;21.50;72.50
49821;DHT22;36893;52.520;13.450;2023-04-01T14:26:50;21.50;72.50
49821;DHT22;36893;52.520;13.450;2023-04-01T14:47:50;21.50;72.40
49821;DHT22;36893;52.520;13.450;2023-04-01T14:58:15;21.50;72.50
49821;DHT22;36893;52.520;13.450;2023-04-01T15:08:32;21.50;72.50
49821;DHT22;36893;52.520;13.450;2023-04-01T15:40:16;21.40;72.40
49821;DHT22;36893;52.520;13.450;2023-04-01T15:50:46;21.40;72.50
49821;DHT22;36893;52.520;13.450;2023-04-01T16:01:29;21.50;72.60
49821;DHT22;36893;52.520;13.450;2023-04-01T16:12:13;21.50;72.80
49821;DHT22;36893;52.520;13.450;2023-04-01T16:22:34;21.40;72.80
49821;DHT22;36893;52.520;13.450;2023-04-01T16:33:12;21.40;72.80
49821;DHT22;36893;52.520;13.450;2023-04-01T16:43:40;21.50;73.00
49821;DHT22;36893;52.520;13.450;2023-04-01T16:53:49;21.40;73.30
49821;DHT22;36893;52.520;13.450;2023-04-01T17:04:07;21.50;73.30
49821;DHT22;36893;52.520;13.450;2023-04-01T17:14:20;21.40;73.30
49821;DHT22;36893;52.520;13.450;2023-04-01T17:24:48;21.40;73.30
49821;DHT22;36893;52.520;13.450;2023-04-01T17:45:28;21.40;73.50
49821;DHT22;36893;52.520;13.450;2023-04-01T18:06:14;21.40;73.70
49821;DHT22;36893;52.520;13.450;2023-04-01T18:27:03;21.40;73.80
49821;DHT22;36893;52.520;13.450;2023-04-01T18:37:39;21.40;73.90
49821;DHT22;36893;52.520;13.450;2023-04-01T18:48:11;21.40;74.00
49821;DHT22;36893;52.520;13.450;2023-04-01T19:08:38;21.50;74.90
49821;DHT22;36893;52.520;13.450;2023-04-01T19:18:48;21.50;74.00
49821;DHT22;36893;52.520;13.450;2023-04-01T19:39:25;21.50;74.10
49821;DHT22;36893;52.520;13.450;2023-04-01T19:49:57;21.60;74.20
49821;DHT22;36893;52.520;13.450;2023-04-01T20:00:07;21.60;74.30
49821;DHT22;36893;52.520;13.450;2023-04-01T20:10:22;21.60;74.30
49821;DHT22;36893;52.520;13.450;2023-04-01T20:20:30;21.60;74.40
49821;DHT22;36893;52.520;13.450;2023-04-01T20:30:53;21.60;75.20
49821;DHT22;36893;52.520;13.450;2023-04-01T20:41:12;21.50;74.60
49821;DHT22;36893;52.520;13.450;2023-04-01T20:51:24;21.60;74.70
49821;DHT22;36893;52.520;13.450;2023-04-01T21:34:01;21.60;75.10
49821;DHT22;36893;52.520;13.450;2023-04-01T21:55:22;21.60;74.90
49821;DHT22;36893;52.520;13.450;2023-04-01T22:16:16;21.60;74.80
49821;DHT22;36893;52.520;13.450;2023-04-01T22:26:34;21.60;74.70
49821;DHT22;36893;52.520;13.450;2023-04-01T22:47:22;21.60;74.70
49821;DHT22;36893;52.520;13.450;2023-04-01T22:58:04;21.50;74.70
49821;DHT22;36893;52.520;13.450;2023-04-01T23:08:28;21.50;74.80
49821;DHT22;36893;52.520;13.450;2023-04-01T23:18:50;21.50;74.80
49821;DHT22;36893;52.520;13.450;2023-04-01T23:28:56;21.50;74.80
49821;DHT22;36893;52.520;13.450;2023-04-01T23:39:05;21.40;74.60
49821;DHT22;36893;52.520;13.450;2023-04-01T23:49:18;21.40;74.70
49821;DHT22;36893;52.520;13.450;2023-04-01T23:59:30;21.40;74.70
